createdAt,value
2018-09-22T00:01:26.102Z,15.40
2018-09-22T00:03:54.243Z,5.73
2018-09-22T00:06:22.385Z,10.37
2018-09-22T00:08:50.523Z,6.27
2018-09-22T00:11:18.655Z,5.40
2018-09-22T00:13:46.803Z,10.53
2018-09-22T00:16:14.929Z,8.07
2018-09-22T00:18:43.059Z,5.50
2018-09-22T00:21:11.206Z,6.97
2018-09-22T00:23:39.339Z,7.40
2018-09-22T00:26:07.759Z,4.80
2018-09-22T00:28:36.026Z,7.00
2018-09-22T00:31:04.418Z,5.10
2018-09-22T00:33:32.568Z,6.40
2018-09-22T00:36:00.707Z,9.50
2018-09-22T00:38:28.837Z,7.70
2018-09-22T00:40:56.978Z,6.17
2018-09-22T00:43:25.118Z,12.10
2018-09-22T00:45:53.249Z,3.77
2018-09-22T00:48:21.375Z,9.90
2018-09-22T00:50:49.637Z,6.23
2018-09-22T00:53:17.913Z,5.20
2018-09-22T00:55:46.052Z,5.47
2018-09-22T00:58:14.186Z,3.70
2018-09-22T01:00:42.327Z,4.70
2018-09-22T01:03:10.470Z,5.53
2018-09-22T01:05:38.586Z,7.10
2018-09-22T01:08:06.730Z,5.37
2018-09-22T01:10:34.850Z,4.90
2018-09-22T01:13:02.985Z,5.60
2018-09-22T01:15:31.142Z,6.47
2018-09-22T01:17:59.251Z,6.47
2018-09-22T01:20:27.395Z,4.13
2018-09-22T01:22:55.521Z,4.57
2018-09-22T01:25:23.642Z,2.93
2018-09-22T01:27:51.778Z,4.03
2018-09-22T01:30:19.904Z,2.70
2018-09-22T01:32:48.039Z,4.53
2018-09-22T01:35:16.154Z,7.07
2018-09-22T01:37:44.277Z,6.10
2018-09-22T01:40:12.394Z,4.20
2018-09-22T01:42:40.527Z,8.20
2018-09-22T01:45:08.641Z,5.13
2018-09-22T01:47:36.780Z,3.60
2018-09-22T01:50:05.431Z,2.97
2018-09-22T01:52:33.573Z,5.10
2018-09-22T01:55:01.694Z,9.90
2018-09-22T01:57:29.838Z,5.10
2018-09-22T01:59:57.994Z,4.40
2018-09-22T02:02:26.130Z,4.33
2018-09-22T02:04:54.274Z,4.97
2018-09-22T02:07:22.414Z,8.27
2018-09-22T02:09:50.553Z,10.87
2018-09-22T02:12:18.682Z,5.47
2018-09-22T02:14:46.819Z,5.60
2018-09-22T02:17:14.946Z,8.90
2018-09-22T02:19:43.084Z,6.03
2018-09-22T02:22:11.206Z,5.10
2018-09-22T02:24:39.350Z,4.77
2018-09-22T02:27:07.486Z,3.43
2018-09-22T02:29:35.635Z,7.23
2018-09-22T02:32:03.766Z,10.90
2018-09-22T02:34:31.921Z,5.27
2018-09-22T02:37:00.052Z,4.43
2018-09-22T02:39:28.195Z,6.93
2018-09-22T02:41:56.333Z,6.27
2018-09-22T02:44:24.461Z,9.17
2018-09-22T02:46:52.594Z,7.27
2018-09-22T02:49:20.744Z,8.90
2018-09-22T02:51:48.870Z,7.57
2018-09-22T02:54:16.997Z,7.40
2018-09-22T02:56:45.134Z,9.50
2018-09-22T02:59:13.265Z,10.47
2018-09-22T03:01:41.414Z,6.07
2018-09-22T03:04:09.550Z,8.30
2018-09-22T03:06:37.738Z,9.80
2018-09-22T03:09:07.590Z,8.33
2018-09-22T03:11:35.735Z,9.80
2018-09-22T03:14:03.887Z,8.87
2018-09-22T03:16:32.054Z,7.67
2018-09-22T03:19:00.239Z,12.67
2018-09-22T03:21:28.371Z,11.43
2018-09-22T03:23:56.495Z,9.37
2018-09-22T03:26:24.642Z,8.33
2018-09-22T03:28:52.901Z,7.17
2018-09-22T03:31:21.042Z,10.97
2018-09-22T03:33:49.172Z,9.57
2018-09-22T03:36:17.314Z,9.10
2018-09-22T03:38:45.459Z,11.73
2018-09-22T03:41:13.599Z,9.50
2018-09-22T03:43:41.725Z,9.80
2018-09-22T03:46:10.075Z,3.63
2018-09-22T03:48:38.226Z,5.10
2018-09-22T03:51:06.366Z,9.30
2018-09-22T03:53:34.532Z,7.40
2018-09-22T03:56:02.653Z,9.63
2018-09-22T03:58:30.789Z,7.47
2018-09-22T04:00:58.921Z,15.00
2018-09-22T04:03:27.071Z,13.40
2018-09-22T04:05:55.194Z,5.23
2018-09-22T04:08:23.318Z,10.77
2018-09-22T04:10:51.483Z,10.53
2018-09-22T04:13:19.625Z,6.40
2018-09-22T04:15:47.770Z,15.33
2018-09-22T04:18:15.995Z,10.30
2018-09-22T04:20:44.107Z,7.83
2018-09-22T04:23:12.234Z,8.83
2018-09-22T04:25:40.477Z,3.30
2018-09-22T04:28:08.610Z,5.73
2018-09-22T04:30:36.738Z,10.90
2018-09-22T04:33:04.878Z,11.10
2018-09-22T04:35:32.996Z,6.97
2018-09-22T04:38:01.126Z,12.03
2018-09-22T04:40:29.315Z,10.00
2018-09-22T04:42:57.442Z,5.10
2018-09-22T04:45:25.561Z,7.43
2018-09-22T04:47:53.686Z,7.63
2018-09-22T04:50:21.811Z,8.30
2018-09-22T04:52:49.950Z,11.63
2018-09-22T04:55:18.083Z,12.83
2018-09-22T04:57:46.215Z,13.20
2018-09-22T05:00:14.354Z,9.77
2018-09-22T05:02:42.487Z,11.97
2018-09-22T05:05:10.618Z,12.20
2018-09-22T05:07:38.740Z,6.53
2018-09-22T05:10:06.869Z,8.03
2018-09-22T05:12:34.986Z,7.53
2018-09-22T05:15:03.159Z,5.67
2018-09-22T05:17:31.282Z,5.93
2018-09-22T05:19:59.411Z,6.13
2018-09-22T05:22:27.530Z,10.23
2018-09-22T05:24:55.664Z,7.77
2018-09-22T05:27:23.813Z,8.03
2018-09-22T05:29:51.942Z,7.90
2018-09-22T05:32:20.078Z,10.27
2018-09-22T05:34:48.218Z,13.00
2018-09-22T05:37:16.355Z,5.47
2018-09-22T05:39:44.495Z,8.87
2018-09-22T05:42:12.609Z,5.07
2018-09-22T05:44:40.742Z,12.23
2018-09-22T05:47:08.874Z,10.83
2018-09-22T05:49:37.036Z,5.23
2018-09-22T05:52:05.146Z,5.80
2018-09-22T05:54:33.278Z,8.10
2018-09-22T05:57:01.412Z,9.90
2018-09-22T05:59:29.530Z,4.70
2018-09-22T06:01:57.691Z,10.60
2018-09-22T06:04:25.859Z,11.53
2018-09-22T06:06:54.002Z,14.37
2018-09-22T06:09:22.129Z,9.80
2018-09-22T06:11:50.269Z,7.40
2018-09-22T06:14:18.398Z,5.27
2018-09-22T06:16:46.546Z,5.67
2018-09-22T06:19:14.669Z,5.80
2018-09-22T06:21:42.816Z,11.93
2018-09-22T06:24:10.941Z,9.20
2018-09-22T06:26:39.095Z,14.00
2018-09-22T06:29:07.228Z,9.17
2018-09-22T06:31:35.373Z,3.70
2018-09-22T06:34:03.777Z,7.50
2018-09-22T06:36:31.926Z,9.60
2018-09-22T06:39:00.082Z,7.60
2018-09-22T06:41:28.220Z,7.27
2018-09-22T06:43:56.346Z,8.27
2018-09-22T06:46:24.512Z,6.97
2018-09-22T06:48:52.650Z,9.23
2018-09-22T06:51:20.791Z,12.10
2018-09-22T06:53:48.925Z,9.03
2018-09-22T06:56:17.058Z,6.50
2018-09-22T06:58:45.203Z,12.40
2018-09-22T07:01:13.347Z,7.43
2018-09-22T07:03:41.490Z,14.73
2018-09-22T07:06:09.789Z,10.63
2018-09-22T07:08:37.930Z,13.37
2018-09-22T07:11:06.082Z,9.43
2018-09-22T07:13:34.227Z,7.83
2018-09-22T07:16:02.346Z,5.67
2018-09-22T07:18:30.481Z,11.10
2018-09-22T07:21:03.955Z,6.70
2018-09-22T07:23:32.116Z,11.23
2018-09-22T07:26:00.243Z,13.57
2018-09-22T07:28:28.394Z,16.73
2018-09-22T07:30:56.777Z,7.03
2018-09-22T07:33:25.026Z,11.17
2018-09-22T07:35:53.166Z,11.40
2018-09-22T07:38:21.312Z,9.47
2018-09-22T07:40:49.448Z,12.17
2018-09-22T07:43:17.578Z,10.80
2018-09-22T07:45:45.743Z,10.03
2018-09-22T07:48:13.854Z,8.43
2018-09-22T07:50:42.002Z,10.53
2018-09-22T07:53:10.134Z,10.67
2018-09-22T07:55:38.274Z,8.10
2018-09-22T07:58:06.545Z,11.10
2018-09-22T08:00:34.788Z,7.90
2018-09-22T08:03:02.822Z,10.17
2018-09-22T08:05:30.962Z,10.07
2018-09-22T08:07:59.134Z,7.83
2018-09-22T08:10:27.290Z,6.17
2018-09-22T08:12:55.417Z,10.63
2018-09-22T08:15:23.575Z,12.07
2018-09-22T08:17:51.698Z,13.00
2018-09-22T08:20:19.841Z,10.77
2018-09-22T08:22:48.013Z,8.50
2018-09-22T08:25:16.188Z,8.73
2018-09-22T08:27:44.292Z,12.17
2018-09-22T08:30:12.434Z,8.93
2018-09-22T08:32:40.575Z,14.30
2018-09-22T08:35:08.709Z,10.97
2018-09-22T08:37:36.875Z,10.27
2018-09-22T08:40:05.014Z,13.50
2018-09-22T08:42:33.145Z,18.17
2018-09-22T08:45:01.339Z,11.03
2018-09-22T08:47:29.454Z,10.27
2018-09-22T08:49:57.664Z,8.27
2018-09-22T08:52:25.794Z,10.47
2018-09-22T08:54:53.930Z,7.87
2018-09-22T08:57:22.069Z,11.87
2018-09-22T08:59:50.205Z,9.13
2018-09-22T09:02:18.362Z,8.00
2018-09-22T09:04:46.495Z,12.60
2018-09-22T09:07:14.632Z,7.60
2018-09-22T09:09:42.758Z,5.27
2018-09-22T09:12:10.881Z,4.20
2018-09-22T09:14:39.049Z,5.63
2018-09-22T09:17:07.183Z,7.27
2018-09-22T09:19:35.295Z,10.00
2018-09-22T09:22:03.425Z,8.90
2018-09-22T09:24:31.566Z,4.83
2018-09-22T09:26:59.718Z,8.37
2018-09-22T09:29:27.843Z,6.40
2018-09-22T09:31:55.957Z,9.13
2018-09-22T09:34:24.093Z,7.47
2018-09-22T09:36:52.214Z,9.33
2018-09-22T09:39:20.345Z,6.10
2018-09-22T09:41:48.521Z,4.73
2018-09-22T09:44:16.677Z,3.70
2018-09-22T09:46:44.810Z,9.60
2018-09-22T09:49:12.946Z,6.57
2018-09-22T09:51:41.065Z,10.80
2018-09-22T09:54:09.203Z,7.00
2018-09-22T09:56:37.325Z,3.70
2018-09-22T09:59:05.454Z,5.00
2018-09-22T10:01:33.590Z,7.30
2018-09-22T10:04:01.726Z,10.00
2018-09-22T10:06:29.853Z,4.47
2018-09-22T10:08:58.056Z,7.30
2018-09-22T10:11:26.178Z,5.80
2018-09-22T10:13:54.327Z,7.33
2018-09-22T10:16:22.464Z,3.47
2018-09-22T10:18:50.601Z,12.20
2018-09-22T10:21:18.726Z,7.37
2018-09-22T10:23:46.874Z,6.97
2018-09-22T10:26:15.003Z,8.77
2018-09-22T10:28:43.151Z,5.77
2018-09-22T10:31:11.266Z,3.60
2018-09-22T10:33:39.426Z,5.47
2018-09-22T10:36:07.685Z,7.30
2018-09-22T10:38:35.817Z,7.77
2018-09-22T10:41:03.979Z,7.30
2018-09-22T10:43:32.135Z,4.60
2018-09-22T10:46:00.265Z,7.80
2018-09-22T10:48:28.395Z,8.60
2018-09-22T10:50:56.538Z,4.73
2018-09-22T10:53:24.670Z,3.67
2018-09-22T10:55:52.877Z,4.47
2018-09-22T10:58:21.002Z,5.03
2018-09-22T11:00:49.310Z,7.60
2018-09-22T11:03:17.459Z,5.17
2018-09-22T11:05:45.587Z,7.20
2018-09-22T11:08:13.726Z,6.87
2018-09-22T11:10:41.870Z,6.60
2018-09-22T11:13:09.995Z,4.50
2018-09-22T11:15:38.119Z,8.57
2018-09-22T11:18:06.687Z,5.60
2018-09-22T11:20:34.819Z,5.07
2018-09-22T11:23:02.954Z,9.90
2018-09-22T11:25:31.087Z,9.07
2018-09-22T11:27:59.223Z,9.77
2018-09-22T11:30:27.366Z,6.90
2018-09-22T11:32:55.514Z,5.13
2018-09-22T11:35:23.645Z,5.53
2018-09-22T11:37:51.781Z,4.90
2018-09-22T11:40:19.925Z,3.80
2018-09-22T11:42:48.053Z,4.40
2018-09-22T11:45:16.178Z,6.80
2018-09-22T11:47:44.318Z,3.47
2018-09-22T11:50:12.459Z,4.97
2018-09-22T11:52:40.604Z,3.27
2018-09-22T11:55:08.723Z,3.37
2018-09-22T11:57:36.858Z,4.93
2018-09-22T12:00:05.467Z,3.13
2018-09-22T12:02:33.710Z,6.77
2018-09-22T12:05:01.839Z,2.07
2018-09-22T12:07:29.987Z,3.90
2018-09-22T12:09:58.151Z,6.60
2018-09-22T12:12:26.283Z,5.50
2018-09-22T12:14:54.422Z,3.03
2018-09-22T12:17:22.567Z,4.87
2018-09-22T12:19:50.731Z,5.83
2018-09-22T12:22:18.849Z,5.30
2018-09-22T12:24:46.997Z,3.27
2018-09-22T12:27:15.138Z,4.80
2018-09-22T12:29:43.283Z,4.37
2018-09-22T12:32:11.410Z,5.47
2018-09-22T12:34:39.542Z,2.57
2018-09-22T12:37:07.699Z,6.07
2018-09-22T12:39:35.826Z,4.20
2018-09-22T12:42:03.959Z,4.90
2018-09-22T12:44:32.108Z,6.10
2018-09-22T12:47:00.229Z,5.00
2018-09-22T12:49:28.362Z,3.53
2018-09-22T12:51:56.613Z,9.83
2018-09-22T12:54:24.762Z,12.80
2018-09-22T12:56:52.889Z,8.60
2018-09-22T12:59:21.032Z,3.63
2018-09-22T13:01:49.157Z,8.43
2018-09-22T13:04:17.287Z,5.13
2018-09-22T13:06:45.426Z,6.80
2018-09-22T13:09:13.550Z,3.37
2018-09-22T13:11:41.691Z,4.70
2018-09-22T13:14:09.802Z,5.43
2018-09-22T13:16:37.937Z,8.10
2018-09-22T13:19:06.266Z,9.90
2018-09-22T13:21:34.409Z,5.03
2018-09-22T13:24:02.525Z,10.40
2018-09-22T13:26:30.682Z,3.33
2018-09-22T13:28:58.822Z,5.00
2018-09-22T13:31:26.959Z,5.63
2018-09-22T13:33:55.126Z,16.40
2018-09-22T13:36:23.270Z,9.13
2018-09-22T13:38:51.414Z,6.80
2018-09-22T13:41:19.582Z,11.23
2018-09-22T13:43:47.983Z,5.03
2018-09-22T13:46:16.122Z,4.97
2018-09-22T13:48:44.501Z,3.10
2018-09-22T13:51:12.630Z,3.20
2018-09-22T13:53:40.750Z,7.70
2018-09-22T13:56:08.678Z,3.53
2018-09-22T13:58:36.807Z,6.50
2018-09-22T14:01:04.986Z,4.87
2018-09-22T14:03:33.187Z,12.40
2018-09-22T14:06:01.483Z,6.37
2018-09-22T14:08:29.613Z,8.60
2018-09-22T14:10:57.735Z,7.87
2018-09-22T14:13:25.873Z,13.00
2018-09-22T14:15:54.093Z,4.70
2018-09-22T14:18:22.210Z,3.77
2018-09-22T14:20:50.501Z,5.80
2018-09-22T14:23:18.654Z,6.13
2018-09-22T14:25:46.986Z,12.10
2018-09-22T14:28:15.118Z,7.70
2018-09-22T14:30:43.279Z,5.70
2018-09-22T14:33:11.418Z,7.30
2018-09-22T14:35:39.541Z,6.37
2018-09-22T14:38:07.719Z,5.43
2018-09-22T14:40:36.070Z,5.10
2018-09-22T14:43:04.170Z,4.60
2018-09-22T14:45:32.301Z,5.23
2018-09-22T14:48:00.430Z,5.67
2018-09-22T14:50:28.567Z,6.60
2018-09-22T14:52:56.720Z,8.53
2018-09-22T14:55:24.875Z,6.87
2018-09-22T14:57:52.998Z,5.50
2018-09-22T15:00:21.161Z,8.47
2018-09-22T15:02:49.338Z,8.67
2018-09-22T15:05:17.479Z,4.73
2018-09-22T15:07:45.609Z,5.63
2018-09-22T15:10:13.750Z,5.77
2018-09-22T15:12:41.874Z,4.07
2018-09-22T15:15:10.023Z,8.53
2018-09-22T15:17:38.154Z,11.80
2018-09-22T15:20:06.322Z,6.60
2018-09-22T15:22:34.470Z,5.43
2018-09-22T15:25:02.614Z,6.87
2018-09-22T15:27:30.742Z,5.87
2018-09-22T15:29:58.898Z,6.20
2018-09-22T15:32:27.047Z,4.50
2018-09-22T15:34:55.215Z,8.73
2018-09-22T15:37:23.378Z,9.70
2018-09-22T15:39:51.518Z,3.07
2018-09-22T15:42:19.649Z,4.90
2018-09-22T15:44:47.794Z,7.50
2018-09-22T15:47:15.930Z,6.87
2018-09-22T15:49:44.082Z,6.63
2018-09-22T15:52:12.266Z,4.83
2018-09-22T15:54:40.403Z,8.03
2018-09-22T15:57:08.542Z,2.43
2018-09-22T15:59:36.710Z,3.63
2018-09-22T16:02:04.899Z,3.50
2018-09-22T16:04:33.078Z,4.20
2018-09-22T16:07:01.239Z,6.33
2018-09-22T16:09:29.390Z,3.60
2018-09-22T16:11:57.610Z,2.70
2018-09-22T16:14:25.747Z,4.03
2018-09-22T16:16:53.894Z,5.23
2018-09-22T16:19:22.051Z,3.90
2018-09-22T16:21:50.235Z,5.00
2018-09-22T16:24:18.342Z,5.87
2018-09-22T16:26:46.491Z,3.47
2018-09-22T16:29:14.624Z,5.27
2018-09-22T16:31:42.774Z,3.37
2018-09-22T16:34:11.799Z,4.53
2018-09-22T16:36:39.937Z,4.50
2018-09-22T16:39:09.090Z,3.67
2018-09-22T16:41:37.251Z,3.97
2018-09-22T16:44:05.382Z,2.47
2018-09-22T16:46:33.659Z,5.83
2018-09-22T16:49:01.852Z,6.37
2018-09-22T16:51:30.079Z,4.77
2018-09-22T16:53:58.206Z,5.37
2018-09-22T16:56:26.339Z,4.37
2018-09-22T16:58:54.490Z,2.80
2018-09-22T17:01:22.791Z,4.47
2018-09-22T17:03:50.919Z,5.60
2018-09-22T17:06:44.374Z,4.60
2018-09-22T17:09:12.527Z,2.97
2018-09-22T17:11:40.666Z,5.03
2018-09-22T17:14:08.794Z,2.70
2018-09-22T17:16:36.960Z,4.33
2018-09-22T17:19:05.086Z,3.60
2018-09-22T17:21:33.223Z,4.07
2018-09-22T17:24:01.349Z,5.23
2018-09-22T17:26:29.494Z,3.83
2018-09-22T17:28:57.646Z,4.37
2018-09-22T17:31:25.793Z,4.63
2018-09-22T17:33:53.943Z,5.77
2018-09-22T17:36:22.151Z,5.53
2018-09-22T17:38:50.290Z,5.30
2018-09-22T17:41:18.426Z,2.57
2018-09-22T17:43:46.554Z,4.13
2018-09-22T17:46:14.698Z,4.20
2018-09-22T17:48:43.031Z,5.63
2018-09-22T17:51:11.167Z,4.00
2018-09-22T17:53:39.314Z,4.00
2018-09-22T17:56:07.457Z,6.17
2018-09-22T17:58:35.614Z,6.23
2018-09-22T18:01:03.754Z,6.33
2018-09-22T18:03:31.882Z,3.47
2018-09-22T18:06:00.045Z,3.30
2018-09-22T18:08:28.855Z,5.17
2018-09-22T18:10:56.986Z,3.73
2018-09-22T18:13:25.131Z,4.40
2018-09-22T18:15:53.302Z,5.43
2018-09-22T18:18:21.437Z,4.00
2018-09-22T18:20:49.577Z,4.10
2018-09-22T18:23:17.756Z,5.67
2018-09-22T18:25:45.887Z,4.30
2018-09-22T18:28:14.033Z,2.70
2018-09-22T18:30:42.163Z,6.07
2018-09-22T18:33:10.347Z,6.40
2018-09-22T18:35:38.481Z,5.93
2018-09-22T18:38:06.662Z,6.07
2018-09-22T18:40:34.802Z,6.37
2018-09-22T18:43:02.966Z,4.20
2018-09-22T18:45:31.097Z,6.50
2018-09-22T18:47:59.254Z,6.67
2018-09-22T18:50:27.385Z,5.90
2018-09-22T18:52:55.541Z,5.63
2018-09-22T18:55:23.699Z,5.90
2018-09-22T18:57:51.863Z,7.10
2018-09-22T19:00:20.007Z,7.00
2018-09-22T19:02:48.191Z,10.73
2018-09-22T19:05:16.354Z,10.03
2018-09-22T19:07:44.554Z,7.10
2018-09-22T19:10:12.728Z,4.93
2018-09-22T19:12:40.902Z,6.27
2018-09-22T19:16:13.031Z,10.63
2018-09-22T19:18:46.734Z,6.83
2018-09-22T19:21:22.578Z,6.13
2018-09-22T19:23:54.827Z,7.40
2018-09-22T19:26:33.130Z,10.30
2018-09-22T19:29:09.698Z,3.17
2018-09-22T19:31:42.287Z,5.60
2018-09-22T19:34:14.542Z,7.27
2018-09-22T19:37:00.310Z,4.60
2018-09-22T19:39:41.270Z,6.00
2018-09-22T19:42:29.323Z,3.27
2018-09-22T19:45:02.149Z,3.70
2018-09-22T19:47:40.171Z,5.70
2018-09-22T19:50:10.667Z,4.53
2018-09-22T19:52:50.995Z,5.57
2018-09-22T19:55:19.386Z,9.27
2018-09-22T19:57:47.799Z,9.70
2018-09-22T20:00:15.942Z,9.93
2018-09-22T20:02:44.112Z,11.70
2018-09-22T20:05:12.301Z,9.50
2018-09-22T20:07:40.442Z,8.77
2018-09-22T20:10:08.623Z,9.60
2018-09-22T20:12:36.772Z,10.57
2018-09-22T20:15:05.098Z,9.10
2018-09-22T20:17:33.309Z,11.93
2018-09-22T20:20:01.436Z,14.30
2018-09-22T20:22:29.579Z,17.60
2018-09-22T20:24:57.729Z,23.47
2018-09-22T20:27:25.899Z,13.33
2018-09-22T20:29:54.058Z,17.70
2018-09-22T20:32:22.298Z,13.80
2018-09-22T20:34:50.530Z,15.57
2018-09-22T20:37:19.466Z,20.70
2018-09-22T20:39:47.654Z,17.37
2018-09-22T20:42:15.854Z,19.10
2018-09-22T20:44:44.025Z,16.57
2018-09-22T20:47:12.195Z,21.20
2018-09-22T20:49:40.330Z,20.57
2018-09-22T20:52:08.510Z,23.47
2018-09-22T20:54:36.888Z,22.10
2018-09-22T20:57:05.059Z,20.73
2018-09-22T20:59:33.355Z,24.17
2018-09-22T21:02:01.581Z,29.67
2018-09-22T21:04:29.750Z,27.13
2018-09-22T21:06:57.892Z,26.13
2018-09-22T21:09:26.079Z,24.93
2018-09-22T21:11:54.265Z,27.20
2018-09-22T21:14:22.419Z,18.77
2018-09-22T21:16:50.612Z,22.00
2018-09-22T21:19:18.858Z,22.90
2018-09-22T21:21:47.144Z,27.53
2018-09-22T21:24:15.335Z,24.40
2018-09-22T21:26:43.470Z,36.17
2018-09-22T21:29:11.639Z,26.83
2018-09-22T21:31:39.793Z,24.17
2018-09-22T21:34:08.138Z,24.97
2018-09-22T21:36:36.326Z,26.50
2018-09-22T21:39:07.127Z,30.43
2018-09-22T21:41:35.272Z,29.63
2018-09-22T21:44:03.423Z,19.17
2018-09-22T21:46:31.566Z,24.40
2018-09-22T21:48:59.758Z,20.60
2018-09-22T21:51:27.910Z,35.03
2018-09-22T21:53:56.061Z,33.27
2018-09-22T21:56:24.213Z,30.13
2018-09-22T21:58:52.375Z,19.67
2018-09-22T22:01:26.107Z,21.37
2018-09-22T22:03:54.262Z,22.20
2018-09-22T22:06:22.438Z,17.23
2018-09-22T22:08:50.585Z,13.63
2018-09-22T22:11:18.729Z,18.23
2018-09-22T22:13:46.890Z,16.47
2018-09-22T22:16:15.031Z,20.97
2018-09-22T22:18:43.190Z,15.40
2018-09-22T22:21:11.335Z,17.27
2018-09-22T22:23:39.477Z,18.07
2018-09-22T22:26:07.654Z,14.20
2018-09-22T22:28:35.835Z,17.30
2018-09-22T22:31:03.978Z,13.30
2018-09-22T22:33:32.416Z,12.10
2018-09-22T22:36:00.555Z,12.03
2018-09-22T22:38:28.713Z,11.80
2018-09-22T22:40:56.848Z,16.30
2018-09-22T22:43:25.085Z,10.37
2018-09-22T22:45:53.246Z,16.30
2018-09-22T22:48:21.466Z,13.73
2018-09-22T22:50:49.603Z,11.87
2018-09-22T22:53:17.740Z,12.70
2018-09-22T22:55:45.887Z,10.60
2018-09-22T22:58:14.019Z,12.60
2018-09-22T23:00:42.164Z,7.80
2018-09-22T23:03:10.286Z,11.10
2018-09-22T23:05:38.422Z,10.20
2018-09-22T23:08:06.557Z,11.47
2018-09-22T23:10:34.703Z,9.63
2018-09-22T23:13:02.831Z,11.23
2018-09-22T23:15:30.970Z,8.40
2018-09-22T23:17:59.107Z,10.70
2018-09-22T23:20:27.246Z,7.30
2018-09-22T23:22:55.375Z,9.80
2018-09-22T23:25:23.523Z,9.43
2018-09-22T23:27:51.680Z,7.93
2018-09-22T23:30:19.818Z,7.40
2018-09-22T23:32:47.976Z,9.60
2018-09-22T23:35:16.150Z,8.10
2018-09-22T23:37:44.302Z,5.60
2018-09-22T23:40:12.466Z,7.80
2018-09-22T23:42:40.618Z,7.23
2018-09-22T23:45:08.747Z,9.63
2018-09-22T23:47:36.886Z,9.40
2018-09-22T23:50:05.023Z,9.47
2018-09-22T23:52:33.166Z,8.73
2018-09-22T23:55:01.298Z,8.77
2018-09-22T23:57:29.443Z,7.73
2018-09-22T23:59:57.589Z,11.93
